Mount Auburn, Indiana
Current Conditions -  °F | °C
As of 7:53 AM on Thursday 30 Oct 2014 (Local Time) from KMIE Reporting Station
Overcast Overcast  
Wind Chill: 43°   Ceiling: 3500
Heat Index: 43°   Visibility: 10mi
Dew Point: 36°   Wind: 0mph
Humidity: 76%   Direction: NA
Pressure: 30.15"   Gusts: NA
Location:  39.8349°N, 85.156°W
Report Text: KMIE 301153Z 00000KT 10SM OVC035 06/02 A3015 RMK AO2 SLP210 T00610022 10061 20050 50005
Loading
Personal Weather Stations






























Interactive Weather Map New forecast layout! Learn more

10-Day Weather Forecast

Advertisements
Track Severe Weather on mobile